Time;durP1;ratioP1;P1;durP2;ratioP2;P2;SDS_P1;SDS_P2;PMS_P1;PMS_P2;Temp;Humidity;BMP_temperature;BMP_pressure;BME280_temperature;BME280_humidity;BME280_pressure;Samples;Min_cycle;Max_cycle;Signal;HPM_P1;HPM_P2
2022/04/29 00:00:26;;;;;;;15.53;8.90;;;;;;;12.08;100.00;100186.34;5076272;28;20200;-80
2022/04/29 00:03:01;;;;;;;13.20;9.17;;;;;;;11.75;100.00;100188.91;5072928;28;20192;-79
2022/04/29 00:05:30;;;;;;;16.90;9.40;;;;;;;11.93;100.00;100195.09;5070240;28;20196;-80
2022/04/29 00:07:58;;;;;;;15.90;9.77;;;;;;;11.90;100.00;100192.63;4982509;28;20221;-79
2022/04/29 00:10:46;;;;;;;19.37;10.23;;;;;;;11.90;100.00;100188.16;5023047;28;20202;-81
2022/04/29 00:13:15;;;;;;;14.60;9.40;;;;;;;11.56;100.00;100183.72;5030037;28;20202;-79
2022/04/29 00:15:45;;;;;;;17.13;9.03;;;;;;;11.66;100.00;100190.25;4973842;28;20192;-80
2022/04/29 00:18:14;;;;;;;13.53;9.33;;;;;;;11.59;100.00;100182.72;4966978;28;20211;-79
2022/04/29 00:20:44;;;;;;;13.33;10.27;;;;;;;11.49;100.00;100182.34;4969588;28;20194;-79
2022/04/29 00:23:12;;;;;;;17.70;9.87;;;;;;;11.40;100.00;100182.81;4969263;28;20207;-79
2022/04/29 00:25:42;;;;;;;13.33;9.33;;;;;;;11.45;100.00;100173.66;4952171;28;20199;-80
2022/04/29 00:28:11;;;;;;;15.53;9.40;;;;;;;11.36;100.00;100184.72;4992016;28;20231;-79
2022/04/29 00:30:40;;;;;;;16.73;10.30;;;;;;;11.42;100.00;100178.28;4950971;28;20200;-80
2022/04/29 00:33:10;;;;;;;14.57;9.80;;;;;;;11.47;100.00;100171.78;4957111;28;20214;-79
2022/04/29 00:35:41;;;;;;;13.97;9.23;;;;;;;11.71;100.00;100172.31;4990402;28;20277;-80
2022/04/29 00:38:15;;;;;;;14.33;9.57;;;;;;;11.81;100.00;100166.56;4993653;28;20199;-79
2022/04/29 00:40:44;;;;;;;14.53;9.47;;;;;;;11.71;100.00;100167.00;4990004;28;20202;-80
2022/04/29 00:43:14;;;;;;;13.03;9.63;;;;;;;11.78;100.00;100162.25;4999537;28;20279;-79
2022/04/29 00:45:43;;;;;;;16.47;9.97;;;;;;;11.69;100.00;100168.03;5033373;28;20190;-79
2022/04/29 00:48:12;;;;;;;14.83;9.80;;;;;;;11.78;100.00;100161.38;4979796;28;20206;-80
2022/04/29 00:50:42;;;;;;;13.77;9.07;;;;;;;11.86;100.00;100151.22;5009332;28;20218;-79
2022/04/29 00:53:13;;;;;;;12.57;9.00;;;;;;;11.86;100.00;100145.91;5012705;28;20270;-80
2022/04/29 00:55:44;;;;;;;16.43;9.47;;;;;;;11.98;100.00;100142.63;5016095;28;20206;-80
2022/04/29 00:58:21;;;;;;;15.23;9.57;;;;;;;12.02;100.00;100141.50;5013798;28;20225;-79
2022/04/29 01:00:50;;;;;;;14.00;8.93;;;;;;;12.00;100.00;100133.63;5012758;28;20299;-79
2022/04/29 01:03:19;;;;;;;15.70;9.20;;;;;;;12.02;100.00;100142.34;5015256;28;20190;-79
2022/04/29 01:05:50;;;;;;;15.70;10.00;;;;;;;11.85;100.00;100134.44;5012750;28;20202;-79
2022/04/29 01:08:18;;;;;;;14.50;9.73;;;;;;;11.65;100.00;100124.00;5018263;28;20199;-79
2022/04/29 01:10:49;;;;;;;16.20;9.50;;;;;;;11.61;100.00;100135.72;5010996;28;20207;-79
2022/04/29 01:13:21;;;;;;;13.73;10.00;;;;;;;11.50;100.00;100125.69;5041882;28;20275;-80
2022/04/29 01:15:51;;;;;;;13.63;9.87;;;;;;;11.32;100.00;100121.31;5050060;28;20201;-79
2022/04/29 01:18:21;;;;;;;15.67;9.70;;;;;;;11.33;100.00;100123.88;5052229;28;20266;-79
2022/04/29 01:21:03;;;;;;;13.70;9.20;;;;;;;11.37;100.00;100125.44;5073926;28;20188;-80
2022/04/29 01:23:35;;;;;;;13.60;8.90;;;;;;;11.31;100.00;100130.22;5075251;28;20271;-80
2022/04/29 01:26:04;;;;;;;14.50;8.93;;;;;;;11.30;100.00;100128.50;5074935;28;20660;-79
2022/04/29 01:28:37;;;;;;;19.23;9.40;;;;;;;11.28;100.00;100117.94;5073555;28;20261;-79
2022/04/29 01:31:06;;;;;;;15.67;9.60;;;;;;;11.08;100.00;100124.28;5076189;28;20196;-79
2022/04/29 01:33:39;;;;;;;13.93;9.73;;;;;;;10.91;100.00;100121.63;5071309;28;20658;-79
2022/04/29 01:36:09;;;;;;;14.63;10.03;;;;;;;11.07;100.00;100122.56;5075281;28;20188;-78
2022/04/29 01:38:39;;;;;;;15.23;10.37;;;;;;;11.02;100.00;100124.59;5072214;28;20231;-79
2022/04/29 01:41:09;;;;;;;15.33;10.23;;;;;;;11.01;100.00;100122.03;5028955;28;20193;-79
2022/04/29 01:43:39;;;;;;;14.67;9.43;;;;;;;11.05;100.00;100120.94;5028100;28;20197;-79
2022/04/29 01:46:07;;;;;;;14.20;9.23;;;;;;;10.97;100.00;100121.31;5030445;28;20257;-79
2022/04/29 01:48:38;;;;;;;13.03;9.43;;;;;;;10.97;100.00;100116.00;5011442;28;20245;-80
2022/04/29 01:51:08;;;;;;;14.53;9.93;;;;;;;10.96;100.00;100114.28;5028664;28;20228;-80
2022/04/29 01:53:38;;;;;;;14.70;9.87;;;;;;;10.87;100.00;100107.66;4973580;28;20674;-79
2022/04/29 01:56:07;;;;;;;17.50;10.07;;;;;;;10.81;100.00;100109.78;4966810;28;20207;-79
2022/04/29 01:58:37;;;;;;;16.20;10.17;;;;;;;10.86;100.00;100111.25;4976252;28;20265;-79
2022/04/29 02:01:09;;;;;;;13.80;9.60;;;;;;;10.71;100.00;100106.72;5012035;28;20203;-79
2022/04/29 02:03:39;;;;;;;18.83;11.07;;;;;;;10.68;100.00;100114.81;5011939;28;20195;-79
2022/04/29 02:06:07;;;;;;;15.10;10.03;;;;;;;10.81;100.00;100123.03;5010017;28;20198;-79
2022/04/29 02:08:38;;;;;;;16.97;9.73;;;;;;;10.84;100.00;100117.56;5003665;28;20198;-80
2022/04/29 02:11:06;;;;;;;14.57;9.90;;;;;;;10.92;100.00;100115.41;5008418;28;20728;-79
2022/04/29 02:13:35;;;;;;;15.33;10.13;;;;;;;10.88;100.00;100111.16;5010502;28;20206;-79
2022/04/29 02:16:04;;;;;;;13.53;9.63;;;;;;;11.05;100.00;100103.22;5011006;28;20310;-80
2022/04/29 02:18:34;;;;;;;18.07;10.00;;;;;;;11.13;100.00;100108.16;5011599;28;20264;-79
2022/04/29 02:21:03;;;;;;;15.50;9.43;;;;;;;11.23;100.00;100104.09;5010235;28;20202;-79
2022/04/29 02:23:32;;;;;;;14.53;9.00;;;;;;;11.27;100.00;100102.97;5008676;28;20206;-80
2022/04/29 02:26:04;;;;;;;12.27;9.23;;;;;;;11.33;100.00;100100.03;5088118;28;20191;-79
2022/04/29 02:28:40;;;;;;;15.80;9.53;;;;;;;11.16;100.00;100107.97;5090400;28;20224;-80
2022/04/29 02:31:12;;;;;;;14.70;9.27;;;;;;;11.31;100.00;100104.56;5048695;28;20203;-79
2022/04/29 02:33:43;;;;;;;14.03;9.27;;;;;;;11.21;100.00;100103.31;5042759;28;20205;-80
2022/04/29 02:36:12;;;;;;;13.73;9.17;;;;;;;11.09;100.00;100102.13;5001810;28;20276;-79
2022/04/29 02:38:44;;;;;;;16.63;9.40;;;;;;;11.09;100.00;100104.78;5050632;28;20254;-79
2022/04/29 02:41:19;;;;;;;13.80;9.40;;;;;;;10.84;100.00;100101.66;5047497;28;20186;-80
2022/04/29 02:43:48;;;;;;;16.33;9.47;;;;;;;10.85;100.00;100098.06;5051588;28;20279;-79
2022/04/29 02:46:16;;;;;;;12.70;9.23;;;;;;;10.87;100.00;100104.16;5050814;28;20216;-79
2022/04/29 02:48:49;;;;;;;17.37;9.43;;;;;;;10.88;100.00;100103.22;5053506;28;20188;-79
2022/04/29 02:51:21;;;;;;;16.47;9.80;;;;;;;10.75;100.00;100099.47;5086121;28;20195;-79
2022/04/29 02:53:51;;;;;;;14.70;9.70;;;;;;;10.55;100.00;100101.31;5072265;28;20200;-79
2022/04/29 02:56:27;;;;;;;11.30;9.07;;;;;;;10.40;100.00;100094.09;5067278;28;20283;-79
2022/04/29 02:58:55;;;;;;;15.67;9.57;;;;;;;10.65;100.00;100095.56;5071606;28;20242;-79
2022/04/29 03:01:24;;;;;;;12.77;9.47;;;;;;;10.55;100.00;100092.50;5067759;28;20196;-79
2022/04/29 03:03:53;;;;;;;15.47;9.83;;;;;;;10.64;100.00;100094.69;5074686;28;20200;-79
2022/04/29 03:06:24;;;;;;;15.17;9.20;;;;;;;10.67;100.00;100097.19;5068957;28;20188;-80
2022/04/29 03:08:53;;;;;;;15.23;9.80;;;;;;;10.75;100.00;100094.16;5000430;28;20197;-79
2022/04/29 03:11:23;;;;;;;14.07;10.17;;;;;;;10.82;100.00;100087.63;5028136;28;20190;-80
2022/04/29 03:13:55;;;;;;;15.73;9.30;;;;;;;10.70;100.00;100086.44;5030240;28;20192;-80
2022/04/29 03:16:25;;;;;;;15.80;9.70;;;;;;;10.74;100.00;100081.84;5030222;28;20240;-80
2022/04/29 03:18:54;;;;;;;16.23;10.10;;;;;;;10.62;100.00;100074.53;5007757;28;20218;-80
2022/04/29 03:21:23;;;;;;;14.17;9.53;;;;;;;10.66;100.00;100068.13;4912962;29;20225;-80
2022/04/29 03:23:52;;;;;;;15.20;10.03;;;;;;;10.58;100.00;100068.50;4913494;29;20658;-80
2022/04/29 03:26:23;;;;;;;16.60;8.97;;;;;;;10.63;100.00;100074.44;4926765;28;20279;-79
2022/04/29 03:28:52;;;;;;;15.93;9.50;;;;;;;10.58;100.00;100071.16;4932281;29;20229;-79
2022/04/29 03:31:22;;;;;;;14.90;9.63;;;;;;;10.62;100.00;100074.53;4931979;29;20252;-79
2022/04/29 03:33:51;;;;;;;16.13;10.30;;;;;;;10.52;100.00;100074.97;4932540;29;20209;-80
2022/04/29 03:36:32;;;;;;;13.23;9.67;;;;;;;10.49;100.00;100075.09;4932996;29;20222;-79
2022/04/29 03:39:00;;;;;;;16.73;10.43;;;;;;;10.55;100.00;100069.50;4893206;29;20420;-79
2022/04/29 03:41:29;;;;;;;17.50;10.13;;;;;;;10.36;100.00;100062.53;4892859;29;20226;-79
2022/04/29 03:44:05;;;;;;;19.47;10.80;;;;;;;10.35;100.00;100066.13;4863174;29;20282;-79
2022/04/29 03:46:34;;;;;;;19.57;10.00;;;;;;;10.43;100.00;100056.03;4954923;28;20200;-79
2022/04/29 03:51:54;;;;;;;16.73;10.10;;;;;;;10.34;100.00;100067.91;4933829;29;20313;-79
2022/04/29 03:54:25;;;;;;;15.20;10.00;;;;;;;10.35;100.00;100063.47;4860696;29;20349;-80
2022/04/29 03:56:54;;;;;;;16.67;10.27;;;;;;;10.30;100.00;100066.34;4861575;29;20210;-79
2022/04/29 03:59:24;;;;;;;16.00;9.97;;;;;;;10.24;100.00;100067.50;4859402;29;20232;-79
2022/04/29 04:01:53;;;;;;;16.77;10.30;;;;;;;10.29;100.00;100067.28;4857950;29;20211;-79
2022/04/29 04:04:24;;;;;;;22.57;10.50;;;;;;;10.07;100.00;100074.50;4902914;29;20713;-79
2022/04/29 04:06:52;;;;;;;15.60;10.50;;;;;;;9.86;100.00;100077.22;4913589;29;20281;-79
2022/04/29 04:09:27;;;;;;;16.27;10.00;;;;;;;9.86;100.00;100077.22;4910711;29;20241;-79
2022/04/29 04:11:56;;;;;;;17.67;10.53;;;;;;;9.71;100.00;100078.78;4929159;28;20191;-79
2022/04/29 04:14:28;;;;;;;15.37;11.10;;;;;;;9.82;100.00;100080.06;4990901;28;20635;-79
2022/04/29 04:16:58;;;;;;;17.93;10.40;;;;;;;9.73;100.00;100076.91;4998281;28;20198;-79
2022/04/29 04:19:27;;;;;;;16.43;10.50;;;;;;;9.85;100.00;100086.09;5000025;28;20222;-79
2022/04/29 04:21:55;;;;;;;16.30;10.27;;;;;;;9.80;100.00;100074.00;4995469;28;20191;-80
2022/04/29 04:24:23;;;;;;;16.33;10.00;;;;;;;9.96;100.00;100075.88;4992868;28;20213;-80
2022/04/29 04:26:52;;;;;;;14.73;9.73;;;;;;;10.06;100.00;100078.94;4993455;28;20203;-79
2022/04/29 04:29:21;;;;;;;17.20;10.90;;;;;;;9.96;100.00;100077.66;4988456;28;1429502;-80
2022/04/29 04:31:53;;;;;;;16.30;10.47;;;;;;;9.99;100.00;100073.06;5073090;28;20239;-80
2022/04/29 04:37:17;;;;;;;16.83;10.87;;;;;;;10.08;100.00;100081.50;5073194;28;20192;-79
2022/04/29 04:39:48;;;;;;;16.53;10.30;;;;;;;10.12;100.00;100083.06;5069452;28;20212;-79
2022/04/29 04:42:19;;;;;;;13.37;9.70;;;;;;;10.29;100.00;100077.84;5077093;28;20267;-79
2022/04/29 04:44:49;;;;;;;16.53;10.67;;;;;;;10.33;100.00;100076.81;5052343;28;20196;-80
2022/04/29 04:47:20;;;;;;;18.50;11.33;;;;;;;10.26;100.00;100072.72;5070191;28;20192;-79
2022/04/29 04:49:49;;;;;;;15.70;9.40;;;;;;;10.39;100.00;100075.63;5066776;28;20223;-79
2022/04/29 04:52:17;;;;;;;16.57;9.90;;;;;;;10.44;100.00;100077.13;5073072;28;20192;-79
2022/04/29 04:54:46;;;;;;;15.83;10.00;;;;;;;10.38;100.00;100073.91;5069141;28;20652;-79
2022/04/29 04:57:14;;;;;;;15.83;10.57;;;;;;;10.42;100.00;100075.47;5068343;28;20197;-79
2022/04/29 04:59:43;;;;;;;12.67;9.83;;;;;;;10.24;100.00;100075.44;5049637;28;20213;-80
2022/04/29 05:02:15;;;;;;;16.00;10.90;;;;;;;10.17;100.00;100083.72;5052730;28;20232;-80
2022/04/29 05:04:47;;;;;;;15.73;10.07;;;;;;;10.34;100.00;100075.88;4989960;28;20734;-79
2022/04/29 05:07:16;;;;;;;16.90;10.40;;;;;;;10.29;100.00;100083.16;4987074;28;20195;-79
2022/04/29 05:09:45;;;;;;;16.33;10.17;;;;;;;10.13;100.00;100087.41;4984857;28;20204;-79
2022/04/29 05:12:14;;;;;;;16.33;10.27;;;;;;;10.45;100.00;100085.94;4993882;28;20191;-79
2022/04/29 05:14:43;;;;;;;17.07;10.80;;;;;;;10.42;100.00;100094.91;4988166;28;20222;-79
2022/04/29 05:17:14;;;;;;;16.33;10.37;;;;;;;10.64;100.00;100097.34;4992936;28;20679;-79
2022/04/29 05:19:43;;;;;;;17.50;10.70;;;;;;;10.74;100.00;100095.97;4984582;28;20222;-79
2022/04/29 05:22:13;;;;;;;18.53;10.60;;;;;;;10.66;100.00;100098.13;4984897;28;20203;-80
2022/04/29 05:24:42;;;;;;;17.93;11.47;;;;;;;10.53;100.00;100097.03;4983213;28;20195;-79
2022/04/29 05:27:11;;;;;;;19.83;11.23;;;;;;;10.59;100.00;100097.56;4986011;28;20214;-80
2022/04/29 05:29:41;;;;;;;19.30;11.03;;;;;;;10.69;100.00;100105.06;5028876;28;20220;-79
2022/04/29 05:32:10;;;;;;;17.30;11.27;;;;;;;10.68;100.00;100100.69;5055020;28;20250;-80
2022/04/29 05:34:39;;;;;;;16.63;10.47;;;;;;;10.93;100.00;100103.84;5006536;28;20190;-80
2022/04/29 05:37:08;;;;;;;18.27;10.70;;;;;;;11.04;100.00;100101.50;5009894;28;20277;-79
2022/04/29 05:42:31;;;;;;;14.13;10.47;;;;;;;11.25;100.00;100098.69;4972866;28;20213;-79
2022/04/29 05:45:02;;;;;;;21.73;11.13;;;;;;;11.35;100.00;100099.94;5007869;28;20244;-80
2022/04/29 05:47:31;;;;;;;16.47;10.53;;;;;;;11.11;100.00;100099.41;5013371;28;20195;-80
2022/04/29 05:49:59;;;;;;;16.77;10.90;;;;;;;11.15;100.00;100100.97;5009094;28;20221;-80
2022/04/29 05:52:30;;;;;;;16.10;11.43;;;;;;;11.43;100.00;100098.59;5012613;28;20206;-80
2022/04/29 05:55:01;;;;;;;18.63;11.20;;;;;;;11.66;100.00;100093.88;5049178;28;20209;-80
2022/04/29 05:57:29;;;;;;;15.93;9.87;;;;;;;11.99;100.00;100091.22;5051330;28;20204;-79
2022/04/29 05:59:59;;;;;;;17.00;10.97;;;;;;;12.11;100.00;100097.66;5045150;28;20244;-80
2022/04/29 06:02:28;;;;;;;14.70;9.90;;;;;;;12.26;100.00;100099.47;5051082;28;20284;-80
2022/04/29 06:04:57;;;;;;;16.27;10.43;;;;;;;12.21;100.00;100096.22;5048148;28;20259;-81
2022/04/29 06:07:26;;;;;;;19.77;10.53;;;;;;;12.37;100.00;100093.56;5046576;28;20283;-79
2022/04/29 06:09:55;;;;;;;18.03;10.70;;;;;;;12.51;100.00;100091.81;4992710;28;20305;-79
2022/04/29 06:12:26;;;;;;;18.13;11.03;;;;;;;12.52;100.00;100092.66;4989104;28;20202;-79
2022/04/29 06:14:55;;;;;;;18.10;10.90;;;;;;;12.48;100.00;100093.81;4992529;28;20207;-79
2022/04/29 06:17:27;;;;;;;17.17;11.30;;;;;;;12.45;100.00;100084.22;4982171;28;20256;-79
2022/04/29 06:19:56;;;;;;;16.17;11.10;;;;;;;12.61;100.00;100082.38;4971848;28;20227;-79
2022/04/29 06:22:27;;;;;;;13.47;10.50;;;;;;;12.50;100.00;100083.94;4972492;28;20227;-79
2022/04/29 06:24:57;;;;;;;15.00;10.43;;;;;;;12.48;100.00;100084.03;4971108;28;20195;-80
2022/04/29 06:27:43;;;;;;;14.10;10.60;;;;;;;12.71;100.00;100076.53;4991702;28;20197;-80
2022/04/29 06:30:13;;;;;;;18.77;10.63;;;;;;;12.93;100.00;100081.44;5030930;28;20315;-79
2022/04/29 06:33:01;;;;;;;19.47;10.90;;;;;;;13.14;100.00;100080.19;5032895;28;20277;-80
2022/04/29 06:35:30;;;;;;;17.10;10.37;;;;;;;13.31;100.00;100072.06;5044415;28;20197;-80
2022/04/29 06:38:01;;;;;;;19.50;10.60;;;;;;;13.39;100.00;100075.13;5056140;28;20272;-79
2022/04/29 06:40:30;;;;;;;15.57;10.37;;;;;;;13.57;100.00;100081.13;5011727;28;20325;-80
2022/04/29 06:43:04;;;;;;;14.97;10.00;;;;;;;13.55;100.00;100072.38;5010261;28;20201;-79
2022/04/29 06:45:33;;;;;;;17.50;10.00;;;;;;;13.62;100.00;100072.88;5012863;28;20210;-79
2022/04/29 06:48:02;;;;;;;16.90;10.47;;;;;;;13.74;100.00;100086.25;5007708;28;20194;-80
2022/04/29 06:50:33;;;;;;;13.50;9.37;;;;;;;13.69;100.00;100075.03;4954642;29;20231;-80
2022/04/29 06:53:01;;;;;;;13.87;9.70;;;;;;;13.53;100.00;100076.94;4947611;29;20231;-80
2022/04/29 06:55:30;;;;;;;14.93;10.00;;;;;;;13.62;100.00;100084.38;4953447;28;20215;-81
2022/04/29 06:58:00;;;;;;;13.80;9.80;;;;;;;13.64;100.00;100074.47;4957168;28;20196;-80
2022/04/29 07:00:33;;;;;;;13.70;9.73;;;;;;;13.59;100.00;100094.34;4950617;29;20267;-79
2022/04/29 07:03:03;;;;;;;13.37;9.80;;;;;;;13.69;100.00;100083.03;4952167;29;20276;-80
2022/04/29 07:05:32;;;;;;;12.63;9.37;;;;;;;13.73;100.00;100087.22;4933406;29;20252;-80
2022/04/29 07:08:02;;;;;;;14.60;9.37;;;;;;;13.71;100.00;100077.63;4943817;28;20206;-80
2022/04/29 07:10:31;;;;;;;12.87;9.07;;;;;;;13.65;100.00;100081.50;4990794;28;20195;-80
2022/04/29 07:13:05;;;;;;;15.67;10.00;;;;;;;13.72;100.00;100074.00;5050047;28;20674;-80
2022/04/29 07:15:43;;;;;;;12.80;9.53;;;;;;;13.72;100.00;100068.69;5048780;28;20203;-80
2022/04/29 07:18:12;;;;;;;13.30;9.23;;;;;;;13.78;100.00;100070.94;5053133;28;20242;-80
2022/04/29 07:20:41;;;;;;;16.10;9.93;;;;;;;13.80;100.00;100071.72;5051598;28;20233;-80
2022/04/29 07:23:10;;;;;;;13.70;9.70;;;;;;;13.89;100.00;100072.94;5050630;28;20208;-79
2022/04/29 07:25:39;;;;;;;16.07;10.17;;;;;;;14.06;100.00;100064.72;5050597;28;20197;-80
2022/04/29 07:28:08;;;;;;;15.57;10.17;;;;;;;14.20;100.00;100071.88;5044915;28;20216;-80
2022/04/29 07:30:38;;;;;;;15.37;9.67;;;;;;;14.50;100.00;100061.91;5052087;28;20640;-80
2022/04/29 07:33:07;;;;;;;15.57;10.37;;;;;;;14.35;100.00;100067.34;5050436;28;20254;-80
2022/04/29 07:43:56;;;;;;;12.57;9.53;;;;;;;15.05;100.00;100066.19;5054149;28;20200;-80
2022/04/29 07:46:26;;;;;;;13.17;9.37;;;;;;;15.14;100.00;100062.03;5050714;28;20280;-80
2022/04/29 07:48:55;;;;;;;13.37;9.60;;;;;;;15.27;100.00;100062.94;5055162;28;20191;-80
2022/04/29 07:51:25;;;;;;;14.07;10.27;;;;;;;15.58;100.00;100064.31;5050991;28;20212;-80
2022/04/29 07:53:55;;;;;;;13.47;10.07;;;;;;;15.61;100.00;100053.44;5050981;28;20276;-79
2022/04/29 07:56:24;;;;;;;16.57;9.77;;;;;;;15.84;100.00;100062.50;5047732;28;20193;-80
2022/04/29 07:58:55;;;;;;;14.60;10.23;;;;;;;16.11;100.00;100064.16;5054181;28;20280;-79
2022/04/29 08:01:30;;;;;;;16.40;10.60;;;;;;;16.20;100.00;100067.00;5051530;28;20217;-79
2022/04/29 08:04:00;;;;;;;16.57;9.70;;;;;;;16.18;100.00;100065.41;4994516;28;20191;-79
2022/04/29 08:06:33;;;;;;;14.60;9.97;;;;;;;16.24;100.00;100065.00;4991456;28;20273;-80
2022/04/29 08:09:23;;;;;;;15.20;9.97;;;;;;;16.18;100.00;100071.63;4963267;28;20207;-80
2022/04/29 08:11:53;;;;;;;13.80;10.33;;;;;;;16.07;100.00;100066.19;4989352;28;20195;-81
2022/04/29 08:14:27;;;;;;;10.70;9.43;;;;;;;16.34;100.00;100068.69;4989032;28;20195;-80
2022/04/29 08:17:16;;;;;;;13.83;10.13;;;;;;;15.99;100.00;100068.56;4992267;28;20207;-80
2022/04/29 08:19:46;;;;;;;12.97;9.50;;;;;;;16.44;100.00;100069.72;4986927;28;20653;-80
2022/04/29 08:22:14;;;;;;;13.93;9.73;;;;;;;16.41;100.00;100067.28;4993672;28;20217;-80
2022/04/29 08:24:44;;;;;;;15.73;9.97;;;;;;;16.44;100.00;100064.38;5017975;28;20213;-80
2022/04/29 08:27:14;;;;;;;12.90;10.47;;;;;;;16.44;100.00;100064.38;5020346;28;20205;-80
2022/04/29 08:29:56;;;;;;;13.80;10.03;;;;;;;16.10;100.00;100062.44;4975630;28;20241;-80
2022/04/29 08:32:38;;;;;;;11.77;9.77;;;;;;;16.35;100.00;100070.41;4963522;28;20663;-80
2022/04/29 08:35:09;;;;;;;14.57;9.90;;;;;;;16.39;100.00;100066.53;4966766;28;20263;-80
2022/04/29 08:37:41;;;;;;;18.27;9.90;;;;;;;16.48;100.00;100062.31;4967410;28;20344;-80
2022/04/29 08:40:13;;;;;;;13.27;9.90;;;;;;;16.58;100.00;100060.66;4983556;28;20194;-81
2022/04/29 08:42:44;;;;;;;16.73;10.67;;;;;;;16.76;100.00;100058.47;5004176;28;20212;-81
2022/04/29 08:45:15;;;;;;;12.70;9.93;;;;;;;16.60;100.00;100062.28;5008569;28;20198;-81
2022/04/29 08:47:47;;;;;;;13.17;9.67;;;;;;;16.54;100.00;100057.38;4988549;28;20195;-81
2022/04/29 08:50:19;;;;;;;14.87;10.90;;;;;;;16.52;100.00;100053.97;4986630;28;20206;-81
2022/04/29 08:52:50;;;;;;;12.40;9.90;;;;;;;16.75;100.00;100054.94;4989793;28;20211;-81
2022/04/29 09:00:51;;;;;;;16.10;9.30;;;;;;;16.85;100.00;100052.44;5030523;28;20281;-82
2022/04/29 09:03:23;;;;;;;15.10;9.70;;;;;;;17.08;100.00;100048.88;5011789;28;20224;-82
2022/04/29 09:05:52;;;;;;;18.70;9.87;;;;;;;16.89;100.00;100048.56;5030996;28;20212;-82
2022/04/29 09:08:22;;;;;;;18.30;11.07;;;;;;;16.73;100.00;100050.69;5052200;28;20189;-82
2022/04/29 09:10:51;;;;;;;13.33;9.57;;;;;;;16.91;100.00;100053.81;5051527;28;20253;-82
2022/04/29 09:13:27;;;;;;;14.77;9.50;;;;;;;17.24;100.00;100053.03;5056300;28;20193;-82
2022/04/29 09:16:04;;;;;;;15.87;10.33;;;;;;;17.21;100.00;100048.78;5053669;28;20196;-82
2022/04/29 09:18:39;;;;;;;14.13;9.83;;;;;;;17.36;100.00;100036.84;5053056;28;20208;-82
2022/04/29 09:21:12;;;;;;;13.03;10.20;;;;;;;17.62;100.00;100048.22;5055563;28;20248;-82
2022/04/29 09:23:42;;;;;;;12.87;10.33;;;;;;;17.34;100.00;100043.31;5053765;28;20205;-81
2022/04/29 09:26:21;;;;;;;13.87;9.73;;;;;;;17.72;100.00;100041.19;5056373;28;20227;-82
2022/04/29 09:28:50;;;;;;;13.70;9.87;;;;;;;17.77;100.00;100040.81;5053028;28;20292;-81
2022/04/29 09:31:18;;;;;;;13.23;10.57;;;;;;;17.44;100.00;100041.63;5055394;28;20199;-81
2022/04/29 09:34:11;;;;;;;12.03;9.43;;;;;;;17.94;100.00;100042.13;5055576;28;20205;-81
2022/04/29 09:36:40;;;;;;;14.90;9.17;;;;;;;17.95;100.00;100041.16;5055221;28;20197;-82
2022/04/29 09:41:56;;;;;;;9.90;8.63;;;;;;;18.11;100.00;100038.94;5054480;28;20225;-81
2022/04/29 09:44:30;;;;;;;12.77;9.90;;;;;;;17.56;100.00;100031.75;5030702;28;20198;-81
2022/04/29 09:47:11;;;;;;;12.80;9.10;;;;;;;17.86;100.00;100033.88;5028247;28;20201;-81
2022/04/29 09:49:43;;;;;;;14.90;9.03;;;;;;;17.95;100.00;100038.47;5030208;28;20229;-81
2022/04/29 09:52:19;;;;;;;13.40;8.83;;;;;;;18.13;100.00;100028.94;5034385;28;20217;-81
2022/04/29 09:54:47;;;;;;;12.37;9.03;;;;;;;18.02;100.00;100032.50;5032922;28;20196;-81
2022/04/29 09:57:19;;;;;;;12.03;8.80;;;;;;;18.15;100.00;100023.47;5037131;28;20197;-81
2022/04/29 09:59:53;;;;;;;11.27;8.60;;;;;;;18.21;100.00;100026.50;5046444;28;20195;-82
2022/04/29 10:02:26;;;;;;;8.80;7.10;;;;;;;18.20;100.00;100022.13;4999035;28;20218;-81
2022/04/29 10:05:01;;;;;;;8.40;6.70;;;;;;;17.71;100.00;100017.19;5010587;28;20209;-81
2022/04/29 10:07:39;;;;;;;9.20;6.70;;;;;;;18.27;95.63;100023.31;5007283;28;20197;-81
2022/04/29 10:10:10;;;;;;;10.33;6.70;;;;;;;18.52;93.84;100021.28;4954565;29;20208;-81
2022/04/29 10:12:48;;;;;;;8.57;6.57;;;;;;;18.57;91.94;100027.13;4952429;29;20208;-81
2022/04/29 10:15:21;;;;;;;10.47;7.33;;;;;;;18.88;86.91;100015.53;4943665;29;20201;-81
2022/04/29 10:23:48;;;;;;;9.13;6.70;;;;;;;19.11;85.21;100010.91;4969485;28;20303;-81
2022/04/29 10:26:19;;;;;;;7.87;6.80;;;;;;;19.43;80.77;100010.81;4970039;28;20204;-81
2022/04/29 10:28:49;;;;;;;8.93;6.57;;;;;;;19.68;76.55;100014.91;4974584;28;20228;-81
2022/04/29 10:31:22;;;;;;;10.80;7.27;;;;;;;19.20;74.20;100019.13;4936502;28;20205;-81
2022/04/29 10:33:52;;;;;;;10.03;6.67;;;;;;;19.70;75.55;100007.56;4919422;28;20198;-80
2022/04/29 10:36:26;;;;;;;10.97;8.93;;;;;;;19.96;91.48;100009.75;4970451;28;20208;-80
2022/04/29 10:39:04;;;;;;;12.47;8.80;;;;;;;19.99;95.67;99998.75;4967744;28;20238;-80
2022/04/29 10:41:36;;;;;;;11.30;8.70;;;;;;;19.92;97.46;99992.22;4952880;29;20243;-80
2022/04/29 10:44:05;;;;;;;11.03;8.23;;;;;;;19.71;97.88;99990.47;4951535;29;20197;-81
2022/04/29 10:46:36;;;;;;;9.80;7.87;;;;;;;19.99;98.88;99988.84;4873760;29;20215;-80
2022/04/29 10:49:26;;;;;;;12.90;7.87;;;;;;;19.39;93.12;99989.69;4890182;29;20209;-80
2022/04/29 10:51:59;;;;;;;10.10;7.60;;;;;;;19.63;99.10;99989.44;4910606;29;20338;-81
2022/04/29 10:54:45;;;;;;;9.80;7.87;;;;;;;20.04;91.91;99988.41;4914681;29;20236;-81
2022/04/29 10:57:17;;;;;;;9.07;7.43;;;;;;;20.25;88.13;99991.00;4914788;29;20204;-80
2022/04/29 10:59:57;;;;;;;9.30;8.17;;;;;;;20.28;93.65;99986.22;4886345;29;20725;-81
2022/04/29 11:02:29;;;;;;;11.63;8.80;;;;;;;20.21;93.09;99985.06;4896080;29;20221;-80
2022/04/29 11:05:00;;;;;;;10.63;8.43;;;;;;;19.95;90.31;99983.84;4898797;29;20246;-80
2022/04/29 11:07:46;;;;;;;10.17;8.50;;;;;;;20.34;97.71;99974.00;4894316;29;20293;-80
2022/04/29 11:10:18;;;;;;;11.37;8.10;;;;;;;20.35;95.50;99972.16;4892982;29;20257;-80
2022/04/29 11:12:58;;;;;;;11.60;8.00;;;;;;;19.90;95.64;99970.00;4930769;29;20213;-81
2022/04/29 11:15:41;;;;;;;10.33;7.70;;;;;;;18.79;94.64;99978.75;4935978;29;20204;-80
2022/04/29 11:18:27;;;;;;;12.63;7.60;;;;;;;19.44;96.00;99966.81;4994624;28;20201;-81
2022/04/29 11:20:59;;;;;;;13.53;7.77;;;;;;;19.55;94.55;99970.41;5029647;28;20212;-80
2022/04/29 11:26:21;;;;;;;9.00;7.47;;;;;;;19.57;94.13;99963.94;5032538;28;20212;-81
2022/04/29 11:28:54;;;;;;;12.67;8.23;;;;;;;19.72;97.30;99962.59;4977519;28;20222;-81
2022/04/29 11:31:36;;;;;;;15.20;8.17;;;;;;;19.88;98.39;99961.19;4990680;28;20338;-80
2022/04/29 11:34:09;;;;;;;13.17;7.83;;;;;;;19.83;100.00;99958.94;4987392;28;20210;-80
2022/04/29 11:36:45;;;;;;;11.30;8.20;;;;;;;19.78;100.00;99963.00;4990882;28;20191;-81
2022/04/29 11:39:19;;;;;;;11.33;7.20;;;;;;;20.05;100.00;99951.59;4987038;28;20316;-80
2022/04/29 11:41:55;;;;;;;10.67;7.70;;;;;;;20.19;98.38;99959.28;4989599;28;20198;-81
2022/04/29 11:44:42;;;;;;;12.20;7.77;;;;;;;19.99;97.34;99961.94;4988877;28;20206;-80
2022/04/29 11:47:11;;;;;;;10.73;8.07;;;;;;;19.99;94.91;99958.41;5024239;28;20242;-80
2022/04/29 11:49:43;;;;;;;12.97;8.10;;;;;;;19.83;95.41;99958.06;5051140;28;20217;-80
2022/04/29 11:52:21;;;;;;;9.83;7.20;;;;;;;20.20;93.77;99955.59;5051722;28;20197;-80
2022/04/29 11:55:08;;;;;;;12.00;7.93;;;;;;;20.34;91.31;99954.31;5050423;28;20201;-80
2022/04/29 11:57:44;;;;;;;9.23;7.70;;;;;;;20.43;91.47;99942.75;5035340;28;20204;-79
2022/04/29 12:00:24;;;;;;;14.10;7.93;;;;;;;20.00;92.52;99943.97;5053543;28;20207;-79
2022/04/29 12:02:57;;;;;;;12.87;7.43;;;;;;;20.28;89.54;99950.38;5055262;28;20712;-80